Time;durP1;ratioP1;P1;durP2;ratioP2;P2;SDS_P1;SDS_P2;PMS_P1;PMS_P2;Temp;Humidity;BMP_temperature;BMP_pressure;BME280_temperature;BME280_humidity;BME280_pressure;Samples;Min_cycle;Max_cycle;Signal;HPM_P1;HPM_P2
2022/01/31 00:01:05;;;;;;;12.47;2.23;;;;;;;4.77;71.21;99766.66;5074327;28;20199;-75
2022/01/31 00:03:34;;;;;;;14.67;2.57;;;;;;;4.88;71.24;99779.03;5074121;28;20244;-75
2022/01/31 00:06:01;;;;;;;13.30;2.20;;;;;;;4.79;71.67;99763.31;5073756;28;20807;-75
2022/01/31 00:08:28;;;;;;;8.90;1.80;;;;;;;4.72;71.99;99770.75;5073516;28;20190;-75
2022/01/31 00:10:56;;;;;;;17.43;2.10;;;;;;;4.65;71.90;99769.69;5074089;28;20215;-75
2022/01/31 00:13:30;;;;;;;10.93;2.43;;;;;;;4.56;72.60;99754.00;5073719;28;20187;-75
2022/01/31 00:15:58;;;;;;;9.37;1.90;;;;;;;4.65;72.95;99745.72;5073271;28;20226;-75
2022/01/31 00:18:25;;;;;;;13.20;2.57;;;;;;;4.50;73.04;99728.09;5073517;28;20581;-75
2022/01/31 00:20:52;;;;;;;13.40;2.70;;;;;;;4.46;72.96;99727.13;5073691;28;20195;-75
2022/01/31 00:23:19;;;;;;;8.67;1.80;;;;;;;4.49;73.41;99737.50;5074035;28;20190;-75
2022/01/31 00:25:46;;;;;;;11.80;2.17;;;;;;;4.52;73.85;99767.53;5072251;28;20583;-76
2022/01/31 00:28:14;;;;;;;7.63;3.03;;;;;;;4.62;74.03;99768.72;5093453;28;20668;-75
2022/01/31 00:30:41;;;;;;;7.23;2.07;;;;;;;4.19;75.61;99699.69;5083973;28;20313;-75
2022/01/31 00:33:08;;;;;;;16.83;3.30;;;;;;;4.50;77.02;99744.38;5074726;28;20195;-76
2022/01/31 00:35:35;;;;;;;8.57;3.17;;;;;;;4.43;77.00;99750.13;5074707;28;20190;-75
2022/01/31 00:38:03;;;;;;;17.27;2.37;;;;;;;4.52;78.01;99759.84;5073935;28;20198;-75
2022/01/31 00:40:30;;;;;;;15.63;2.23;;;;;;;4.43;79.02;99759.53;5082736;28;20200;-76
2022/01/31 00:42:57;;;;;;;10.53;1.80;;;;;;;4.50;79.91;99775.19;5091428;28;20194;-75
2022/01/31 00:45:29;;;;;;;5.53;2.33;;;;;;;4.50;80.88;99785.44;5084493;28;20187;-75
2022/01/31 00:48:02;;;;;;;10.60;2.30;;;;;;;4.41;81.28;99779.13;5073545;28;20198;-76
2022/01/31 00:50:29;;;;;;;1.20;1.20;;;;;;;4.47;82.05;99782.78;5074304;28;20227;-75
2022/01/31 00:52:56;;;;;;;12.27;1.83;;;;;;;4.44;82.26;99784.38;5079524;28;20201;-75
2022/01/31 00:55:23;;;;;;;4.43;2.00;;;;;;;4.39;83.16;99780.75;5093015;28;20590;-75
2022/01/31 00:57:50;;;;;;;5.17;1.93;;;;;;;4.37;84.18;99780.72;5093292;28;20197;-76
2022/01/31 01:00:17;;;;;;;5.13;2.33;;;;;;;4.31;84.56;99789.91;5092084;28;20198;-76
2022/01/31 01:02:46;;;;;;;12.13;2.47;;;;;;;4.30;85.27;99789.03;5076733;28;20198;-76
2022/01/31 01:05:13;;;;;;;5.43;1.80;;;;;;;4.31;85.57;99787.34;5082180;28;20206;-75
2022/01/31 01:07:45;;;;;;;13.23;1.93;;;;;;;4.34;86.35;99787.44;5091869;28;20223;-76
2022/01/31 01:10:13;;;;;;;4.87;2.23;;;;;;;4.32;86.54;99787.38;5085613;28;20309;-75
2022/01/31 01:12:39;;;;;;;7.60;1.93;;;;;;;4.32;87.72;99779.69;5074549;28;20272;-75
2022/01/31 01:15:07;;;;;;;7.30;1.73;;;;;;;4.35;87.97;99784.91;5072511;28;20195;-76
2022/01/31 01:17:34;;;;;;;9.53;2.77;;;;;;;4.20;88.54;99778.41;5083435;28;20205;-75
2022/01/31 01:20:03;;;;;;;9.90;1.93;;;;;;;4.30;89.59;99780.47;5092909;28;20186;-75
2022/01/31 01:22:29;;;;;;;7.63;2.13;;;;;;;4.23;89.93;99779.38;5090738;28;20191;-76
2022/01/31 01:24:56;;;;;;;10.87;2.10;;;;;;;4.31;90.16;99772.81;5072630;28;20191;-75
2022/01/31 01:27:24;;;;;;;8.43;1.67;;;;;;;4.20;90.18;99776.72;5073539;28;20230;-75
2022/01/31 01:29:51;;;;;;;5.67;1.83;;;;;;;4.24;91.18;99786.25;5089280;28;20273;-75
2022/01/31 01:32:17;;;;;;;8.13;1.37;;;;;;;4.14;91.92;99784.16;5090744;28;20233;-75
2022/01/31 01:34:45;;;;;;;6.07;2.10;;;;;;;4.11;92.42;99789.19;5071839;28;20673;-75
2022/01/31 01:37:13;;;;;;;3.80;2.10;;;;;;;4.06;93.01;99801.00;5072768;28;20278;-74
2022/01/31 01:39:40;;;;;;;4.03;1.57;;;;;;;4.16;93.10;99792.81;5071884;28;20195;-75
2022/01/31 01:42:08;;;;;;;2.07;1.30;;;;;;;4.24;91.94;99811.94;5072249;28;20679;-75
2022/01/31 01:44:44;;;;;;;10.23;1.60;;;;;;;3.93;91.98;99755.19;5071405;28;20636;-75
2022/01/31 01:47:11;;;;;;;3.57;1.70;;;;;;;4.24;92.20;99804.22;5072408;28;20225;-76
2022/01/31 01:49:38;;;;;;;7.43;2.40;;;;;;;3.53;91.40;99695.63;5072944;28;20205;-76
2022/01/31 01:52:06;;;;;;;9.83;3.80;;;;;;;4.31;91.15;99808.75;5073246;28;20226;-75
2022/01/31 01:54:34;;;;;;;3.70;2.17;;;;;;;4.22;92.53;99807.53;5074357;28;20195;-76
2022/01/31 01:57:02;;;;;;;4.33;2.20;;;;;;;4.05;92.57;99785.53;5082535;28;20285;-75
2022/01/31 01:59:29;;;;;;;9.23;2.30;;;;;;;4.12;93.39;99788.38;5092181;28;20204;-75
2022/01/31 02:01:56;;;;;;;6.00;1.87;;;;;;;4.15;93.37;99801.31;5089228;28;20660;-75
2022/01/31 02:04:23;;;;;;;12.97;2.53;;;;;;;4.15;93.47;99796.19;5086727;28;20581;-75
2022/01/31 02:06:50;;;;;;;20.73;3.03;;;;;;;4.11;93.74;99799.47;5079782;28;20210;-75
2022/01/31 02:09:21;;;;;;;2.53;1.70;;;;;;;4.14;93.89;99804.69;5090944;28;20194;-75
2022/01/31 02:11:49;;;;;;;9.20;2.90;;;;;;;3.91;93.52;99759.41;5092496;28;20225;-75
2022/01/31 02:14:17;;;;;;;8.50;2.10;;;;;;;4.10;93.57;99802.88;5091732;28;20193;-75
2022/01/31 02:16:44;;;;;;;11.03;3.00;;;;;;;4.13;93.61;99808.09;5083795;28;20268;-75
2022/01/31 02:19:15;;;;;;;8.37;2.00;;;;;;;4.05;93.04;99785.53;5073004;28;20199;-75
2022/01/31 02:21:44;;;;;;;8.50;2.10;;;;;;;4.08;92.97;99808.72;5088754;28;20238;-75
2022/01/31 02:24:13;;;;;;;6.33;2.13;;;;;;;3.93;93.24;99774.03;5091507;28;20197;-74
2022/01/31 02:26:40;;;;;;;5.27;2.20;;;;;;;3.98;92.41;99775.06;5085772;28;20202;-75
2022/01/31 02:29:08;;;;;;;7.43;2.13;;;;;;;4.16;91.51;99808.22;5079567;28;20202;-75
2022/01/31 02:31:35;;;;;;;17.93;6.20;;;;;;;4.10;91.76;99810.56;5071584;28;20214;-74
2022/01/31 02:34:02;;;;;;;36.67;15.53;;;;;;;4.03;90.99;99795.78;5090456;28;20206;-76
2022/01/31 02:36:29;;;;;;;12.97;6.03;;;;;;;4.11;91.59;99809.72;5087564;28;20210;-75
2022/01/31 02:38:57;;;;;;;12.87;2.33;;;;;;;3.96;91.92;99807.47;5070608;28;20190;-76
2022/01/31 02:41:24;;;;;;;5.07;2.83;;;;;;;3.98;92.49;99812.66;5072492;28;20199;-75
2022/01/31 02:43:54;;;;;;;13.50;4.20;;;;;;;4.02;91.80;99809.41;5086610;28;20205;-75
2022/01/31 02:46:22;;;;;;;6.57;2.70;;;;;;;3.81;92.10;99771.03;5088763;28;20230;-75
2022/01/31 02:48:51;;;;;;;7.23;3.23;;;;;;;3.95;92.35;99807.44;5076728;28;20194;-75
2022/01/31 02:51:21;;;;;;;16.00;3.20;;;;;;;4.01;92.18;99797.38;5075398;28;20214;-76
2022/01/31 02:53:48;;;;;;;6.70;3.60;;;;;;;3.91;92.05;99821.84;5077866;28;20230;-75
2022/01/31 02:56:17;;;;;;;11.90;3.97;;;;;;;3.85;92.80;99815.59;5077631;28;20199;-76
2022/01/31 02:58:44;;;;;;;9.70;3.67;;;;;;;3.68;93.60;99822.66;5077066;28;20595;-75
2022/01/31 03:01:11;;;;;;;9.27;2.57;;;;;;;3.74;94.13;99807.53;5076761;28;20195;-76
2022/01/31 03:03:38;;;;;;;4.97;2.53;;;;;;;3.60;93.98;99792.44;5075493;28;20628;-75
2022/01/31 03:06:05;;;;;;;6.40;1.67;;;;;;;3.52;94.09;99793.81;5075618;28;20214;-76
2022/01/31 03:08:32;;;;;;;8.30;3.23;;;;;;;3.57;94.26;99807.69;5094817;28;20264;-75
2022/01/31 03:10:59;;;;;;;11.53;2.60;;;;;;;3.68;94.05;99838.03;5095575;28;20722;-75
2022/01/31 03:13:28;;;;;;;21.63;3.13;;;;;;;3.70;93.54;99830.41;5080244;28;20723;-75
2022/01/31 03:15:56;;;;;;;8.93;2.73;;;;;;;3.78;92.55;99842.69;5075184;28;20623;-75
2022/01/31 03:18:23;;;;;;;5.50;2.40;;;;;;;3.74;91.62;99806.63;5092666;28;20334;-75
2022/01/31 03:20:50;;;;;;;10.43;2.60;;;;;;;3.66;91.00;99802.91;5092703;28;20190;-75
2022/01/31 03:23:16;;;;;;;17.00;4.10;;;;;;;3.85;90.58;99825.88;5084783;28;20199;-75
2022/01/31 03:25:43;;;;;;;14.10;5.07;;;;;;;3.68;91.00;99829.47;5078826;28;20218;-75
2022/01/31 03:28:10;;;;;;;4.90;3.10;;;;;;;3.65;91.79;99821.66;5077752;28;20187;-75
2022/01/31 03:30:38;;;;;;;3.67;1.60;;;;;;;3.69;91.88;99832.09;5075124;28;20549;-75
2022/01/31 03:33:05;;;;;;;14.20;2.40;;;;;;;3.65;91.41;99831.91;5087027;28;20264;-75
2022/01/31 03:35:32;;;;;;;16.47;2.83;;;;;;;3.71;91.53;99832.16;5094604;28;20187;-75
2022/01/31 03:37:59;;;;;;;13.30;2.83;;;;;;;3.38;91.35;99812.13;5079583;28;20198;-75
2022/01/31 03:40:26;;;;;;;17.23;3.33;;;;;;;3.65;91.53;99829.34;5073757;28;20187;-75
2022/01/31 03:42:52;;;;;;;19.03;2.63;;;;;;;3.28;91.34;99776.69;5076039;28;20203;-75
2022/01/31 03:45:19;;;;;;;13.67;4.67;;;;;;;3.21;91.38;99772.13;5074562;28;20191;-74
2022/01/31 03:47:47;;;;;;;10.33;2.20;;;;;;;3.21;91.71;99772.13;5087623;28;20194;-75
2022/01/31 03:50:17;;;;;;;10.03;3.23;;;;;;;3.51;92.25;99818.56;5092474;28;20197;-75
2022/01/31 03:52:44;;;;;;;10.33;2.93;;;;;;;3.42;92.39;99828.47;5084256;28;20246;-75
2022/01/31 03:55:11;;;;;;;10.03;2.63;;;;;;;3.48;92.01;99829.59;5074330;28;20195;-75
2022/01/31 03:57:38;;;;;;;23.23;4.83;;;;;;;3.47;91.72;99815.03;5085823;28;20197;-75
2022/01/31 04:00:07;;;;;;;6.67;2.17;;;;;;;3.55;91.80;99824.69;5094279;28;20669;-76
2022/01/31 04:02:34;;;;;;;16.73;3.40;;;;;;;3.33;91.03;99795.69;5094162;28;20277;-75
2022/01/31 04:05:03;;;;;;;21.77;3.70;;;;;;;3.56;90.72;99831.56;5094969;28;20198;-75
2022/01/31 04:07:30;;;;;;;4.97;2.73;;;;;;;3.54;90.51;99828.06;5083508;28;20591;-75
2022/01/31 04:09:56;;;;;;;8.97;2.67;;;;;;;3.43;90.36;99820.84;5073511;28;20661;-75
2022/01/31 04:12:23;;;;;;;11.37;2.67;;;;;;;3.39;91.39;99813.84;5081529;28;20703;-75
2022/01/31 04:14:50;;;;;;;11.70;4.30;;;;;;;3.42;90.98;99838.72;5094289;28;20190;-74
2022/01/31 04:17:19;;;;;;;7.43;3.63;;;;;;;3.49;91.03;99833.91;5085685;28;20222;-75
2022/01/31 04:19:47;;;;;;;1.80;1.70;;;;;;;3.52;90.73;99824.56;5073924;28;20673;-75
2022/01/31 04:22:18;;;;;;;15.97;3.23;;;;;;;3.47;90.18;99845.78;5074147;28;20190;-75
2022/01/31 04:24:47;;;;;;;12.40;2.83;;;;;;;3.31;91.08;99845.13;5074122;28;20788;-74
2022/01/31 04:27:18;;;;;;;7.83;2.30;;;;;;;2.85;91.21;99766.44;5088558;28;20362;-75
2022/01/31 04:29:46;;;;;;;2.17;1.97;;;;;;;3.29;91.50;99845.03;5094119;28;20198;-75
2022/01/31 04:32:13;;;;;;;7.37;2.50;;;;;;;3.30;91.38;99841.69;5086699;28;20218;-75
2022/01/31 04:34:41;;;;;;;13.13;3.47;;;;;;;3.22;90.91;99837.03;5073760;28;20248;-74
2022/01/31 04:37:08;;;;;;;9.90;2.97;;;;;;;3.27;90.92;99856.94;5082748;28;20190;-74
2022/01/31 04:39:36;;;;;;;16.50;3.87;;;;;;;3.21;90.99;99848.97;5079436;28;20460;-74
2022/01/31 04:42:04;;;;;;;4.17;2.10;;;;;;;2.97;91.13;99814.69;5074556;28;20198;-75
2022/01/31 04:44:31;;;;;;;8.47;3.17;;;;;;;2.67;91.42;99787.88;5073281;28;20210;-75
2022/01/31 04:46:57;;;;;;;20.73;2.90;;;;;;;3.09;91.25;99852.75;5072880;28;20195;-75
2022/01/31 04:49:24;;;;;;;8.37;2.93;;;;;;;3.05;91.85;99867.13;5071993;28;20622;-75
2022/01/31 04:51:51;;;;;;;15.27;2.53;;;;;;;3.10;92.06;99868.19;5072284;28;20666;-75
2022/01/31 04:54:18;;;;;;;6.83;3.00;;;;;;;3.04;92.31;99872.16;5073333;28;20195;-76
2022/01/31 04:56:47;;;;;;;7.13;2.40;;;;;;;3.15;91.47;99874.34;5072638;28;20187;-76
2022/01/31 04:59:13;;;;;;;9.73;2.40;;;;;;;3.11;91.31;99867.34;5072466;28;20750;-74
2022/01/31 05:01:42;;;;;;;8.07;2.60;;;;;;;2.79;91.56;99819.94;5072719;28;20222;-75
2022/01/31 05:04:09;;;;;;;13.80;3.77;;;;;;;3.17;90.99;99877.88;5073666;28;20269;-75
2022/01/31 05:06:38;;;;;;;20.33;3.63;;;;;;;3.11;90.99;99880.16;5072776;28;20281;-74
2022/01/31 05:09:06;;;;;;;14.70;2.93;;;;;;;2.83;91.53;99831.19;5072008;28;20187;-76
2022/01/31 05:11:33;;;;;;;13.73;3.00;;;;;;;2.35;90.21;99756.72;5072146;28;20329;-74
2022/01/31 05:14:01;;;;;;;5.17;2.53;;;;;;;2.97;90.02;99848.88;5074618;28;20689;-74
2022/01/31 05:16:28;;;;;;;5.53;2.80;;;;;;;3.23;90.00;99890.91;5088339;28;20709;-75
2022/01/31 05:18:55;;;;;;;13.07;3.10;;;;;;;3.17;89.64;99898.34;5072630;28;20202;-75
2022/01/31 05:21:21;;;;;;;4.77;3.27;;;;;;;3.15;89.63;99876.91;5072694;28;20670;-75
2022/01/31 05:23:49;;;;;;;8.03;2.90;;;;;;;3.19;89.80;99891.59;5073010;28;20187;-75
2022/01/31 05:26:16;;;;;;;3.70;2.23;;;;;;;3.30;90.06;99886.91;5073126;28;20253;-75
2022/01/31 05:28:43;;;;;;;14.27;3.10;;;;;;;3.15;89.50;99897.41;5073203;28;20210;-74
2022/01/31 05:31:11;;;;;;;14.43;3.50;;;;;;;3.17;90.28;99893.25;5081476;28;20191;-75
2022/01/31 05:33:38;;;;;;;16.07;3.30;;;;;;;3.12;90.43;99893.84;5080362;28;20222;-74
2022/01/31 05:36:06;;;;;;;8.40;3.20;;;;;;;3.11;90.37;99895.53;5080808;28;20194;-74
2022/01/31 05:38:36;;;;;;;6.93;2.60;;;;;;;3.19;89.74;99895.84;5079838;28;20198;-74
2022/01/31 05:41:06;;;;;;;32.83;3.07;;;;;;;3.17;89.85;99902.59;5080784;28;20194;-74
2022/01/31 05:43:33;;;;;;;8.80;2.40;;;;;;;3.23;89.49;99890.03;5079231;28;20199;-75
2022/01/31 05:46:00;;;;;;;13.23;3.27;;;;;;;3.03;89.87;99855.94;5081169;28;20191;-74
2022/01/31 05:48:28;;;;;;;15.50;2.60;;;;;;;3.21;89.15;99891.69;5081403;28;20190;-75
2022/01/31 05:50:55;;;;;;;19.90;3.60;;;;;;;3.19;89.30;99896.72;5071836;28;20692;-73
2022/01/31 05:53:24;;;;;;;10.37;3.57;;;;;;;3.21;89.58;99900.22;5071817;28;20601;-75
2022/01/31 05:55:51;;;;;;;5.00;2.00;;;;;;;3.07;92.12;99824.50;5072412;28;20260;-75
2022/01/31 05:58:18;;;;;;;11.60;2.60;;;;;;;3.46;88.14;99896.97;5071388;28;20187;-78
2022/01/31 06:00:45;;;;;;;9.57;2.93;;;;;;;3.48;87.59;99896.22;5074435;28;21028;-77
2022/01/31 06:03:11;;;;;;;10.90;3.00;;;;;;;3.39;87.85;99890.72;5086939;28;20206;-75
2022/01/31 06:05:40;;;;;;;6.87;2.17;;;;;;;3.38;87.92;99899.22;5082676;28;20632;-74
2022/01/31 06:08:06;;;;;;;15.50;3.47;;;;;;;2.94;87.36;99812.03;5076306;28;20198;-77
2022/01/31 06:10:41;;;;;;;9.33;3.37;;;;;;;3.34;87.62;99894.78;5071221;28;20661;-75
2022/01/31 06:13:07;;;;;;;7.33;3.33;;;;;;;3.38;87.82;99888.97;5071651;28;20245;-75
2022/01/31 06:15:34;;;;;;;4.43;2.17;;;;;;;3.48;86.80;99898.78;5087784;28;20222;-76
2022/01/31 06:18:01;;;;;;;18.53;3.00;;;;;;;3.29;86.02;99856.97;5077054;28;20252;-78
2022/01/31 06:20:28;;;;;;;11.30;2.73;;;;;;;3.52;86.32;99901.47;5072955;28;20191;-78
2022/01/31 06:22:57;;;;;;;2.67;2.17;;;;;;;3.29;87.15;99847.59;5072240;28;20195;-79
2022/01/31 06:25:23;;;;;;;10.87;3.27;;;;;;;3.71;87.69;99903.94;5071672;28;20195;-75
2022/01/31 06:27:51;;;;;;;9.10;3.13;;;;;;;3.63;84.65;99913.91;5084473;28;20194;-76
2022/01/31 06:30:18;;;;;;;11.70;2.90;;;;;;;3.40;84.47;99848.91;5078275;28;20232;-77
2022/01/31 06:32:45;;;;;;;5.53;2.40;;;;;;;3.75;84.00;99900.66;5071954;28;20226;-74
2022/01/31 06:35:13;;;;;;;10.53;2.83;;;;;;;3.79;83.75;99911.09;5071540;28;20187;-76
2022/01/31 06:37:39;;;;;;;9.47;2.80;;;;;;;3.74;83.76;99917.75;5071938;28;20205;-76
2022/01/31 06:40:08;;;;;;;11.57;3.53;;;;;;;3.76;83.85;99894.72;5071100;28;20198;-76
2022/01/31 06:42:35;;;;;;;12.93;3.53;;;;;;;3.90;83.61;99906.38;5071161;28;20194;-76
2022/01/31 06:45:02;;;;;;;15.57;3.60;;;;;;;3.81;82.52;99891.53;5071797;28;20195;-76
2022/01/31 06:47:29;;;;;;;6.80;3.63;;;;;;;3.74;82.58;99857.91;5071683;28;20212;-75
2022/01/31 06:49:56;;;;;;;13.83;3.47;;;;;;;3.70;82.64;99886.81;5071553;28;20199;-75
2022/01/31 06:52:23;;;;;;;14.83;4.33;;;;;;;3.93;81.88;99885.97;5071554;28;20214;-75
2022/01/31 06:54:51;;;;;;;8.40;2.97;;;;;;;3.90;81.60;99871.38;5071684;28;20195;-76
2022/01/31 06:57:22;;;;;;;8.77;2.80;;;;;;;4.05;80.63;99894.16;5071563;28;20294;-76
2022/01/31 06:59:49;;;;;;;8.63;3.20;;;;;;;4.03;83.26;99880.41;5071401;28;20277;-75
2022/01/31 07:02:16;;;;;;;8.47;3.50;;;;;;;3.92;79.74;99835.53;5071691;28;20210;-76
2022/01/31 07:04:43;;;;;;;4.50;2.40;;;;;;;4.14;79.15;99897.03;5084522;28;20194;-77
2022/01/31 07:07:10;;;;;;;10.37;4.20;;;;;;;4.19;78.46;99890.41;5091224;28;20213;-75
2022/01/31 07:09:37;;;;;;;13.10;4.23;;;;;;;4.23;78.75;99897.41;5089953;28;20206;-76
2022/01/31 07:12:08;;;;;;;10.93;4.50;;;;;;;3.99;78.62;99847.75;5090778;28;20738;-76
2022/01/31 07:14:36;;;;;;;8.50;3.37;;;;;;;4.35;77.84;99890.13;5091151;28;20297;-75
2022/01/31 07:17:06;;;;;;;2.03;1.80;;;;;;;4.00;77.99;99816.16;5091089;28;20233;-76
2022/01/31 07:19:35;;;;;;;5.90;3.03;;;;;;;3.88;77.76;99795.19;5090695;28;20198;-75
2022/01/31 07:22:05;;;;;;;17.77;4.33;;;;;;;4.00;76.99;99805.88;5091028;28;20198;-76
2022/01/31 07:24:44;;;;;;;8.40;3.60;;;;;;;4.59;76.82;99879.00;5091112;28;20681;-76
2022/01/31 07:27:11;;;;;;;15.20;3.50;;;;;;;4.56;76.07;99866.06;5091453;28;20205;-77
2022/01/31 07:29:40;;;;;;;4.97;2.57;;;;;;;4.45;75.84;99853.75;5090941;28;20708;-76
2022/01/31 07:32:10;;;;;;;7.23;3.63;;;;;;;4.30;75.68;99813.81;5083023;28;20195;-76
2022/01/31 07:34:38;;;;;;;7.73;4.00;;;;;;;4.55;74.89;99842.09;5072650;28;20260;-78
2022/01/31 07:37:05;;;;;;;7.50;3.37;;;;;;;4.80;74.72;99861.78;5074458;28;20213;-76
2022/01/31 07:39:32;;;;;;;10.23;3.93;;;;;;;4.82;73.62;99857.56;5073750;28;20201;-77
2022/01/31 07:41:59;;;;;;;12.50;4.30;;;;;;;4.75;73.04;99847.91;5074487;28;20199;-77
2022/01/31 07:44:26;;;;;;;9.30;3.97;;;;;;;4.91;73.03;99871.59;5074268;28;20191;-76
2022/01/31 07:46:54;;;;;;;10.97;3.43;;;;;;;5.01;73.17;99857.38;5073787;28;20723;-77
2022/01/31 07:49:22;;;;;;;7.93;3.83;;;;;;;4.94;72.35;99856.28;5073415;28;20194;-78
2022/01/31 07:51:49;;;;;;;10.70;3.43;;;;;;;5.00;71.88;99871.03;5073428;28;20282;-76
2022/01/31 07:54:16;;;;;;;6.13;3.00;;;;;;;5.04;71.77;99882.28;5073419;28;20219;-75
2022/01/31 07:56:43;;;;;;;10.50;3.93;;;;;;;5.07;72.25;99872.97;5073919;28;20199;-77
2022/01/31 07:59:10;;;;;;;5.33;2.27;;;;;;;5.11;71.57;99869.69;5073600;28;20195;-76
2022/01/31 08:01:37;;;;;;;21.37;3.17;;;;;;;5.11;71.19;99874.81;5072968;28;20234;-76
2022/01/31 08:04:05;;;;;;;15.80;3.77;;;;;;;5.23;71.19;99864.09;5073621;28;20296;-76
2022/01/31 08:06:32;;;;;;;19.70;4.63;;;;;;;5.29;70.77;99864.28;5090914;28;20215;-76
2022/01/31 08:08:59;;;;;;;19.53;4.33;;;;;;;5.28;69.99;99865.97;5092706;28;20195;-77
2022/01/31 08:11:31;;;;;;;11.47;3.70;;;;;;;5.40;69.94;99863.81;5093310;28;20209;-78
2022/01/31 08:14:01;;;;;;;4.30;2.23;;;;;;;5.44;69.34;99865.66;5093350;28;20272;-76
2022/01/31 08:16:28;;;;;;;5.83;2.43;;;;;;;5.29;68.54;99862.59;5093379;28;20249;-76
2022/01/31 08:18:54;;;;;;;5.40;2.67;;;;;;;5.43;69.29;99869.03;5093518;28;20197;-75
2022/01/31 08:21:23;;;;;;;12.83;4.13;;;;;;;5.55;69.44;99877.97;5093075;28;20194;-75
2022/01/31 08:23:51;;;;;;;11.80;4.93;;;;;;;5.65;69.21;99870.59;5093326;28;20196;-76
2022/01/31 08:26:18;;;;;;;11.27;3.80;;;;;;;5.67;69.08;99891.22;5093621;28;20191;-78
2022/01/31 08:28:52;;;;;;;8.20;2.60;;;;;;;5.65;68.31;99885.13;5093393;28;20217;-76
2022/01/31 08:31:23;;;;;;;11.03;3.43;;;;;;;5.71;68.11;99872.44;5093010;28;20224;-76
2022/01/31 08:34:04;;;;;;;9.93;3.50;;;;;;;5.50;66.94;99834.97;5072945;28;20252;-76
2022/01/31 08:36:35;;;;;;;10.37;3.07;;;;;;;5.76;67.19;99868.34;5072701;28;20241;-76
2022/01/31 08:39:08;;;;;;;7.77;3.10;;;;;;;5.83;67.09;99872.84;5071993;28;20733;-79
2022/01/31 08:41:35;;;;;;;9.43;2.80;;;;;;;5.88;66.79;99873.91;5090212;28;20190;-77
2022/01/31 08:44:02;;;;;;;12.87;2.63;;;;;;;5.72;65.50;99840.78;5093555;28;20206;-78
2022/01/31 08:46:29;;;;;;;26.63;4.30;;;;;;;5.86;65.04;99880.69;5093035;28;20588;-77
2022/01/31 08:48:58;;;;;;;12.67;3.20;;;;;;;5.85;65.95;99853.19;5094199;28;20309;-77
2022/01/31 08:51:24;;;;;;;14.33;3.60;;;;;;;6.02;65.48;99882.91;5093068;28;20198;-80
2022/01/31 08:53:53;;;;;;;11.47;2.73;;;;;;;5.77;65.52;99844.38;5093412;28;20735;-77
2022/01/31 08:56:20;;;;;;;3.90;2.47;;;;;;;6.05;64.72;99892.41;5094193;28;20211;-79
2022/01/31 08:58:47;;;;;;;9.57;2.37;;;;;;;6.04;64.02;99894.09;5094678;28;20201;-78
2022/01/31 09:01:17;;;;;;;16.00;3.13;;;;;;;6.07;64.46;99876.19;5094621;28;20194;-79
2022/01/31 09:04:00;;;;;;;7.37;2.83;;;;;;;5.25;63.83;99745.09;5095653;28;20190;-79
2022/01/31 09:06:29;;;;;;;16.07;4.03;;;;;;;6.19;64.25;99876.53;5095314;28;20267;-80
2022/01/31 09:08:58;;;;;;;17.17;4.83;;;;;;;6.32;64.60;99870.91;5093185;28;20195;-80
2022/01/31 09:11:25;;;;;;;15.00;3.33;;;;;;;6.43;64.34;99866.94;5094824;28;20657;-79
2022/01/31 09:13:53;;;;;;;9.30;3.57;;;;;;;5.76;62.71;99757.72;5094824;28;20253;-79
2022/01/31 09:16:20;;;;;;;30.37;3.40;;;;;;;6.29;62.70;99852.81;5094653;28;20682;-79
2022/01/31 09:18:47;;;;;;;6.73;2.80;;;;;;;6.13;61.80;99806.88;5094189;28;20190;-80
2022/01/31 09:21:13;;;;;;;5.53;3.20;;;;;;;6.30;61.98;99818.53;5094090;28;20251;-78
2022/01/31 09:23:40;;;;;;;12.27;3.00;;;;;;;6.55;61.56;99842.34;5094221;28;20194;-78
2022/01/31 09:26:09;;;;;;;5.30;2.47;;;;;;;6.61;62.23;99834.78;5093978;28;20194;-79
2022/01/31 09:28:37;;;;;;;8.47;2.73;;;;;;;6.66;60.56;99838.38;5094537;28;20237;-80
2022/01/31 09:31:05;;;;;;;5.10;2.43;;;;;;;6.25;60.66;99784.03;5093911;28;20198;-79
2022/01/31 09:33:31;;;;;;;8.13;2.80;;;;;;;6.66;61.27;99844.38;5093839;28;20268;-80
2022/01/31 09:35:58;;;;;;;6.70;2.63;;;;;;;6.70;60.03;99845.34;5093678;28;20194;-79
2022/01/31 09:38:25;;;;;;;5.50;3.10;;;;;;;6.55;59.79;99804.59;5093618;28;20205;-80
2022/01/31 09:40:53;;;;;;;6.27;2.30;;;;;;;6.66;58.91;99812.59;5092180;28;20193;-80
2022/01/31 09:44:02;;;;;;;9.63;3.27;;;;;;;6.42;59.18;99772.47;5093896;28;20254;-79
2022/01/31 09:49:13;;;;;;;6.03;3.10;;;;;;;6.99;58.24;99813.47;5094418;28;20281;-81
2022/01/31 09:51:40;;;;;;;13.87;4.53;;;;;;;6.56;58.30;99733.34;5092910;28;20194;-81
2022/01/31 09:54:07;;;;;;;8.10;2.13;;;;;;;6.57;58.13;99740.22;5094204;28;20233;-80
2022/01/31 09:56:38;;;;;;;17.37;2.87;;;;;;;6.21;57.48;99656.09;5093111;28;20576;-81
2022/01/31 09:59:08;;;;;;;14.70;4.80;;;;;;;7.17;57.00;99792.41;5094052;28;20200;-84
2022/01/31 10:01:37;;;;;;;7.50;3.50;;;;;;;6.79;56.87;99701.28;5092981;28;20205;-84
2022/01/31 10:04:09;;;;;;;8.10;3.47;;;;;;;7.26;56.76;99761.69;5093733;28;20202;-84
2022/01/31 10:06:38;;;;;;;10.87;2.93;;;;;;;7.38;56.09;99767.97;5094113;28;20210;-82
2022/01/31 10:09:09;;;;;;;16.13;4.43;;;;;;;7.40;55.96;99768.91;5093314;28;20209;-83
2022/01/31 10:11:43;;;;;;;14.73;4.37;;;;;;;7.05;56.08;99679.59;5092988;28;20201;-83
2022/01/31 10:17:00;;;;;;;6.22;2.30;;;;;;;7.35;54.91;99724.06;5092409;28;20249;-81
2022/01/31 10:19:27;;;;;;;6.40;2.53;;;;;;;7.41;54.99;99749.13;5093090;28;20197;-81
2022/01/31 10:22:03;;;;;;;9.97;4.23;;;;;;;6.49;54.69;99577.84;5092907;28;20597;-83
2022/01/31 10:24:32;;;;;;;4.50;2.40;;;;;;;7.55;53.01;99741.69;5092868;28;20205;-78
2022/01/31 10:27:07;;;;;;;2.73;1.93;;;;;;;7.64;53.07;99719.53;5092863;28;20190;-82
2022/01/31 10:29:35;;;;;;;5.03;3.03;;;;;;;7.79;52.74;99713.81;5093038;28;20201;-82
2022/01/31 10:32:06;;;;;;;9.85;3.05;;;;;;;7.79;51.42;99712.09;5093981;28;20202;-82
2022/01/31 10:34:36;;;;;;;5.93;2.80;;;;;;;7.04;51.00;99586.75;5093834;28;20226;-80
2022/01/31 10:37:09;;;;;;;8.03;3.13;;;;;;;7.78;50.94;99697.47;5093376;28;20194;-77
2022/01/31 10:53:58;;;;;;;5.68;2.78;;;;;;;8.20;48.60;99656.09;5085221;28;20283;-78
2022/01/31 10:56:26;;;;;;;10.00;2.92;;;;;;;8.04;47.78;99637.72;5091606;28;20194;-79
2022/01/31 10:58:59;;;;;;;3.13;2.50;;;;;;;7.92;47.62;99600.50;5091772;28;20269;-78
2022/01/31 11:01:28;;;;;;;10.73;2.40;;;;;;;8.21;47.65;99642.34;5091288;28;20193;-79
2022/01/31 11:03:57;;;;;;;7.03;2.22;;;;;;;8.15;46.89;99642.22;5091663;28;20194;-78
2022/01/31 11:06:24;;;;;;;3.17;2.35;;;;;;;7.89;46.12;99576.38;5091592;28;20241;-79
2022/01/31 11:08:52;;;;;;;4.15;2.80;;;;;;;8.31;46.02;99633.91;5092164;28;20202;-80
2022/01/31 11:11:19;;;;;;;3.93;2.70;;;;;;;8.34;43.71;99628.84;5095911;28;20198;-78
2022/01/31 11:13:48;;;;;;;6.88;3.03;;;;;;;7.92;42.76;99556.63;5096023;28;20218;-80
2022/01/31 11:16:16;;;;;;;13.63;3.47;;;;;;;7.89;42.53;99566.03;5095648;28;20291;-79
2022/01/31 11:18:44;;;;;;;7.00;2.72;;;;;;;8.21;42.37;99623.38;5095677;28;20213;-79
2022/01/31 11:21:12;;;;;;;5.43;2.45;;;;;;;8.15;42.35;99606.09;5095213;28;20201;-78
2022/01/31 11:23:43;;;;;;;9.85;2.78;;;;;;;8.28;41.87;99618.38;5095485;28;20233;-78
2022/01/31 11:26:12;;;;;;;7.65;3.03;;;;;;;8.20;42.65;99613.91;5095495;28;20202;-79
2022/01/31 11:28:42;;;;;;;7.30;3.78;;;;;;;8.17;42.24;99604.38;5095465;28;20190;-77
2022/01/31 11:31:09;;;;;;;17.95;3.75;;;;;;;8.01;43.02;99578.28;5095003;28;20284;-78
2022/01/31 11:33:36;;;;;;;8.77;3.22;;;;;;;8.16;43.30;99613.00;5095244;28;20218;-81
2022/01/31 11:36:05;;;;;;;9.05;2.92;;;;;;;8.27;44.34;99616.63;5095142;28;20233;-80
2022/01/31 11:38:33;;;;;;;10.60;3.22;;;;;;;8.22;44.14;99613.09;5095152;28;20198;-80
2022/01/31 11:41:04;;;;;;;11.32;4.18;;;;;;;8.26;44.40;99599.38;5093738;28;20592;-80
2022/01/31 11:43:33;;;;;;;5.32;3.10;;;;;;;8.11;43.88;99591.38;5094786;28;20719;-79
2022/01/31 11:46:02;;;;;;;12.70;3.03;;;;;;;8.13;44.46;99579.38;5094959;28;20241;-80
2022/01/31 11:48:30;;;;;;;10.63;5.40;;;;;;;8.24;45.09;99582.13;5095088;28;20225;-79
2022/01/31 11:51:00;;;;;;;7.18;3.00;;;;;;;8.00;44.80;99567.09;5094550;28;20564;-80
2022/01/31 11:53:30;;;;;;;4.93;3.30;;;;;;;7.78;44.56;99522.00;5094800;28;20194;-78
2022/01/31 11:56:02;;;;;;;8.60;3.25;;;;;;;7.77;44.27;99524.56;5094485;28;20192;-78
2022/01/31 11:58:35;;;;;;;7.50;3.30;;;;;;;8.03;44.84;99585.22;5094867;28;20191;-76
2022/01/31 12:01:02;;;;;;;11.43;3.27;;;;;;;7.99;44.10;99561.06;5094372;28;20212;-77
2022/01/31 12:03:30;;;;;;;8.20;3.42;;;;;;;8.08;44.68;99578.44;5094563;28;20636;-78